createdAt,value
2019-05-21T00:01:39.523Z,12.30
2019-05-21T00:04:11.239Z,12.21
2019-05-21T00:06:47.860Z,12.19
2019-05-21T00:09:19.606Z,12.27
2019-05-21T00:11:54.602Z,12.23
2019-05-21T00:14:28.217Z,12.33
2019-05-21T00:16:59.966Z,12.26
2019-05-21T00:19:31.662Z,12.21
2019-05-21T00:22:04.325Z,12.29
2019-05-21T00:24:36.202Z,12.43
2019-05-21T00:27:09.564Z,12.39
2019-05-21T00:30:17.125Z,12.47
2019-05-21T00:33:24.349Z,12.51
2019-05-21T00:36:32.899Z,12.30
2019-05-21T00:39:40.330Z,12.22
2019-05-21T00:42:10.429Z,12.19
2019-05-21T00:44:45.347Z,11.97
2019-05-21T00:47:17.204Z,11.81
2019-05-21T00:49:48.914Z,11.59
2019-05-21T00:52:22.181Z,11.68
2019-05-21T00:54:54.271Z,11.72
2019-05-21T00:57:26.029Z,11.78
2019-05-21T00:59:57.768Z,11.74
2019-05-21T01:02:29.524Z,11.92
2019-05-21T01:05:01.736Z,11.93
2019-05-21T01:07:33.957Z,11.98
2019-05-21T01:10:06.132Z,11.87
2019-05-21T01:12:37.909Z,11.68
2019-05-21T01:15:09.667Z,11.59
2019-05-21T01:17:41.408Z,11.49
2019-05-21T01:20:13.198Z,11.56
2019-05-21T01:22:45.083Z,11.67
2019-05-21T01:25:17.825Z,11.67
2019-05-21T01:27:49.562Z,11.54
2019-05-21T01:30:22.434Z,11.69
2019-05-21T01:32:54.239Z,11.41
2019-05-21T01:35:25.956Z,11.35
2019-05-21T01:37:59.396Z,11.45
2019-05-21T01:40:31.198Z,11.46
2019-05-21T01:43:04.545Z,11.49
2019-05-21T01:45:36.713Z,11.57
2019-05-21T01:48:08.893Z,11.49
2019-05-21T01:50:40.608Z,11.39
2019-05-21T01:53:12.868Z,11.27
2019-05-21T01:55:44.575Z,11.14
2019-05-21T01:58:16.349Z,11.06
2019-05-21T02:00:48.057Z,11.00
2019-05-21T02:03:19.835Z,11.01
2019-05-21T02:05:51.773Z,11.00
2019-05-21T02:08:23.541Z,11.00
2019-05-21T02:10:55.289Z,10.99
2019-05-21T02:13:27.039Z,11.00
2019-05-21T02:16:01.773Z,11.06
2019-05-21T02:18:33.594Z,11.03
2019-05-21T02:21:05.387Z,11.00
2019-05-21T02:23:37.174Z,11.00
2019-05-21T02:26:09.314Z,11.12
2019-05-21T02:28:41.102Z,11.00
2019-05-21T02:31:13.171Z,10.80
2019-05-21T02:33:44.980Z,10.65
2019-05-21T02:36:16.665Z,10.82
2019-05-21T02:38:48.457Z,10.69
2019-05-21T02:41:21.820Z,10.60
2019-05-21T02:43:56.158Z,10.56
2019-05-21T02:46:30.569Z,10.65
2019-05-21T02:49:05.019Z,10.70
2019-05-21T02:51:36.774Z,10.70
2019-05-21T02:54:10.816Z,10.73
2019-05-21T02:56:43.536Z,10.76
2019-05-21T02:59:15.298Z,10.81
2019-05-21T03:02:05.852Z,10.90
2019-05-21T03:04:39.191Z,10.92
2019-05-21T03:07:19.834Z,10.69
2019-05-21T03:09:51.645Z,10.53
2019-05-21T03:12:23.497Z,10.48
2019-05-21T03:14:55.218Z,10.50
2019-05-21T03:17:26.985Z,10.45
2019-05-21T03:19:59.747Z,10.38
2019-05-21T03:22:31.558Z,10.31
2019-05-21T03:25:03.359Z,10.19
2019-05-21T03:27:37.186Z,10.15
2019-05-21T03:30:08.998Z,10.19
2019-05-21T03:32:40.846Z,10.08
2019-05-21T03:35:12.700Z,10.10
2019-05-21T03:37:45.038Z,10.19
2019-05-21T03:40:18.557Z,10.22
2019-05-21T03:42:50.302Z,10.31
2019-05-21T03:45:22.048Z,10.34
2019-05-21T03:47:53.775Z,10.26
2019-05-21T03:50:26.580Z,10.26
2019-05-21T03:52:58.312Z,10.06
2019-05-21T03:55:30.038Z,10.04
2019-05-21T03:58:02.263Z,9.98
2019-05-21T04:00:33.963Z,10.04
2019-05-21T04:03:07.240Z,10.04
2019-05-21T04:05:46.498Z,9.96
2019-05-21T04:08:18.225Z,9.89
2019-05-21T04:10:50.161Z,10.04
2019-05-21T04:13:23.521Z,9.92
2019-05-21T04:16:14.137Z,9.81
2019-05-21T04:18:53.815Z,9.53
2019-05-21T04:21:25.524Z,9.41
2019-05-21T04:23:57.241Z,9.37
2019-05-21T04:26:28.920Z,9.33
2019-05-21T04:29:00.654Z,9.33
2019-05-21T04:31:32.406Z,9.33
2019-05-21T04:34:05.989Z,9.38
2019-05-21T04:36:38.101Z,9.48
2019-05-21T04:39:09.852Z,9.58
2019-05-21T04:41:41.931Z,9.56
2019-05-21T04:44:13.697Z,9.55
2019-05-21T04:46:45.488Z,9.60
2019-05-21T04:49:17.221Z,9.65
2019-05-21T04:51:49.380Z,9.69
2019-05-21T04:54:21.082Z,9.83
2019-05-21T04:56:52.861Z,9.88
2019-05-21T04:59:24.555Z,9.80
2019-05-21T05:01:56.412Z,9.77
2019-05-21T05:04:28.138Z,9.78
2019-05-21T05:06:59.894Z,9.78
2019-05-21T05:09:31.841Z,9.65
2019-05-21T05:12:03.695Z,9.55
2019-05-21T05:14:37.707Z,9.40
2019-05-21T05:17:09.460Z,9.30
2019-05-21T05:19:41.177Z,9.34
2019-05-21T05:22:12.925Z,9.36
2019-05-21T05:24:44.712Z,9.43
2019-05-21T05:27:16.496Z,9.51
2019-05-21T05:29:49.881Z,9.56
2019-05-21T05:32:22.017Z,9.65
2019-05-21T05:34:53.815Z,9.73
2019-05-21T05:37:41.448Z,9.84
2019-05-21T05:40:00.636Z,9.94
2019-05-21T05:42:32.376Z,10.01
2019-05-21T05:45:04.125Z,10.04
2019-05-21T05:47:36.194Z,10.07
2019-05-21T05:50:10.183Z,9.98
2019-05-21T05:52:41.977Z,10.04
2019-05-21T05:55:13.751Z,10.03
2019-05-21T05:57:45.493Z,9.94
2019-05-21T06:00:17.370Z,10.62
2019-05-21T06:02:49.472Z,12.38
2019-05-21T06:05:21.268Z,13.78
2019-05-21T06:07:59.762Z,14.61
2019-05-21T06:10:28.051Z,15.08
2019-05-21T06:12:59.835Z,15.66
2019-05-21T06:15:37.372Z,15.97
2019-05-21T06:18:11.840Z,16.47
2019-05-21T06:20:44.016Z,16.37
2019-05-21T06:23:15.755Z,17.45
2019-05-21T06:25:47.494Z,17.98
2019-05-21T06:28:19.271Z,17.96
2019-05-21T06:30:58.853Z,18.48
2019-05-21T06:33:30.615Z,18.72
2019-05-21T06:36:02.407Z,17.86
2019-05-21T06:38:34.166Z,18.97
2019-05-21T06:41:06.211Z,19.00
2019-05-21T06:43:37.938Z,19.89
2019-05-21T06:46:09.688Z,19.26
2019-05-21T06:48:41.805Z,19.90
2019-05-21T06:51:13.607Z,20.42
2019-05-21T06:53:46.747Z,20.39
2019-05-21T06:56:20.231Z,21.33
2019-05-21T06:58:52.064Z,21.64
2019-05-21T07:01:28.864Z,21.72
2019-05-21T07:03:57.252Z,22.20
2019-05-21T07:06:28.957Z,22.35
2019-05-21T07:09:00.789Z,23.20
2019-05-21T07:11:34.122Z,23.40
2019-05-21T07:14:05.870Z,23.76
2019-05-21T07:16:37.595Z,23.71
2019-05-21T07:19:10.654Z,24.06
2019-05-21T07:21:42.476Z,24.23
2019-05-21T07:24:14.230Z,24.50
2019-05-21T07:26:47.838Z,24.92
2019-05-21T07:29:20.745Z,23.73
2019-05-21T07:31:53.935Z,24.73
2019-05-21T07:34:26.216Z,24.11
2019-05-21T07:36:59.635Z,22.96
2019-05-21T07:39:31.427Z,23.88
2019-05-21T07:42:04.845Z,23.85
2019-05-21T07:44:36.641Z,24.39
2019-05-21T07:47:08.596Z,24.63
2019-05-21T07:49:41.292Z,24.01
2019-05-21T07:52:13.180Z,25.51
2019-05-21T07:54:45.102Z,26.42
2019-05-21T07:57:16.919Z,26.69
2019-05-21T07:59:53.335Z,26.58
2019-05-21T08:02:25.110Z,24.64
2019-05-21T08:04:56.841Z,25.37
2019-05-21T08:07:29.083Z,26.09
2019-05-21T08:10:01.205Z,26.63
2019-05-21T08:12:39.432Z,26.92
2019-05-21T08:15:18.275Z,26.77
2019-05-21T08:18:01.706Z,27.65
2019-05-21T08:20:38.457Z,27.52
2019-05-21T08:23:10.492Z,28.17
2019-05-21T08:25:42.301Z,28.08
2019-05-21T08:28:14.224Z,28.25
2019-05-21T08:30:46.063Z,29.01
2019-05-21T08:33:17.844Z,28.37
2019-05-21T08:35:49.623Z,28.42
2019-05-21T08:38:23.077Z,28.63
2019-05-21T08:40:54.895Z,29.01
2019-05-21T08:43:26.707Z,25.92
2019-05-21T08:46:00.233Z,26.78
2019-05-21T08:48:32.233Z,23.28
2019-05-21T08:51:04.052Z,25.55
2019-05-21T08:53:37.844Z,27.16
2019-05-21T08:56:09.661Z,28.54
2019-05-21T08:58:41.439Z,29.49
2019-05-21T09:01:13.265Z,30.18
2019-05-21T09:03:46.064Z,29.47
2019-05-21T09:06:17.845Z,29.28
2019-05-21T09:08:51.739Z,30.10
2019-05-21T09:11:23.883Z,30.99
2019-05-21T09:13:55.750Z,29.84
2019-05-21T09:16:27.602Z,30.33
2019-05-21T09:18:59.514Z,30.95
2019-05-21T09:21:31.448Z,30.55
2019-05-21T09:24:03.315Z,30.33
2019-05-21T09:26:36.751Z,30.39
2019-05-21T09:29:10.277Z,30.95
2019-05-21T09:31:42.053Z,31.31
2019-05-21T09:34:14.221Z,31.00
2019-05-21T09:36:45.970Z,31.14
2019-05-21T09:39:17.831Z,31.92
2019-05-21T09:41:49.561Z,31.34
2019-05-21T09:44:22.409Z,30.46
2019-05-21T09:46:54.508Z,30.64
2019-05-21T09:49:27.281Z,31.48
2019-05-21T09:51:59.068Z,32.26
2019-05-21T09:54:30.830Z,31.25
2019-05-21T09:57:08.873Z,30.90
2019-05-21T09:59:45.847Z,31.43
2019-05-21T10:02:25.008Z,32.18
2019-05-21T10:04:56.804Z,32.46
2019-05-21T10:07:38.879Z,30.97
2019-05-21T10:10:02.312Z,32.68
2019-05-21T10:12:34.369Z,32.47
2019-05-21T10:15:06.712Z,33.20
2019-05-21T10:17:39.440Z,32.74
2019-05-21T10:20:11.270Z,33.09
2019-05-21T10:22:44.727Z,33.34
2019-05-21T10:25:16.455Z,32.50
2019-05-21T10:27:48.193Z,32.19
2019-05-21T10:30:20.972Z,31.32
2019-05-21T10:32:54.285Z,31.55
2019-05-21T10:35:26.046Z,32.47
2019-05-21T10:37:59.609Z,31.61
2019-05-21T10:40:31.328Z,31.79
2019-05-21T10:43:03.017Z,32.28
2019-05-21T10:45:36.145Z,33.06
2019-05-21T10:48:08.251Z,31.93
2019-05-21T10:50:39.986Z,29.60
2019-05-21T10:53:11.806Z,28.14
2019-05-21T10:55:44.708Z,30.79
2019-05-21T10:58:16.476Z,31.40
2019-05-21T11:00:49.219Z,31.99
2019-05-21T11:03:27.971Z,33.10
2019-05-21T11:06:10.044Z,33.02
2019-05-21T11:08:36.548Z,33.01
2019-05-21T11:11:08.359Z,32.61
2019-05-21T11:13:40.096Z,31.42
2019-05-21T11:16:11.892Z,32.05
2019-05-21T11:18:43.701Z,31.45
2019-05-21T11:21:15.455Z,32.93
2019-05-21T11:23:49.562Z,32.30
2019-05-21T11:26:24.309Z,32.76
2019-05-21T11:28:57.961Z,31.91
2019-05-21T11:31:29.675Z,30.52
2019-05-21T11:34:01.389Z,30.25
2019-05-21T11:36:34.106Z,28.63
2019-05-21T11:39:07.945Z,27.74
2019-05-21T11:41:41.291Z,28.40
2019-05-21T11:44:12.992Z,28.18
2019-05-21T11:46:44.721Z,27.93
2019-05-21T11:49:16.465Z,27.86
2019-05-21T11:51:49.793Z,27.63
2019-05-21T11:54:21.539Z,26.93
2019-05-21T11:56:53.295Z,26.00
2019-05-21T11:59:24.990Z,26.39
2019-05-21T12:01:56.750Z,27.00
2019-05-21T12:04:28.474Z,27.17
2019-05-21T12:07:03.246Z,26.77
2019-05-21T12:09:33.655Z,26.76
2019-05-21T12:12:07.232Z,26.86
2019-05-21T12:14:40.685Z,27.17
2019-05-21T12:17:12.386Z,26.29
2019-05-21T12:19:44.146Z,26.83
2019-05-21T12:22:16.145Z,26.70
2019-05-21T12:24:48.536Z,27.16
2019-05-21T12:27:20.271Z,26.42
2019-05-21T12:29:52.221Z,26.52
2019-05-21T12:32:23.937Z,27.20
2019-05-21T12:34:55.684Z,27.51
2019-05-21T12:37:28.620Z,27.49
2019-05-21T12:40:00.679Z,27.05
2019-05-21T12:42:34.250Z,27.43
2019-05-21T12:45:07.603Z,27.47
2019-05-21T12:47:39.301Z,26.70
2019-05-21T12:50:11.610Z,27.18
2019-05-21T12:52:44.953Z,27.29
2019-05-21T12:55:18.482Z,26.15
2019-05-21T12:57:50.493Z,26.19
2019-05-21T13:00:22.453Z,26.17
2019-05-21T13:02:54.359Z,25.98
2019-05-21T13:05:26.051Z,26.07
2019-05-21T13:07:57.810Z,26.41
2019-05-21T13:10:29.656Z,26.04
2019-05-21T13:13:02.994Z,26.15
2019-05-21T13:15:34.704Z,26.19
2019-05-21T13:18:06.459Z,26.31
2019-05-21T13:20:38.309Z,26.58
2019-05-21T13:23:10.248Z,27.10
2019-05-21T13:25:42.102Z,27.64
2019-05-21T13:28:13.852Z,27.78
2019-05-21T13:30:45.611Z,27.82
2019-05-21T13:33:19.387Z,27.76
2019-05-21T13:35:50.833Z,27.15
2019-05-21T13:38:22.577Z,26.80
2019-05-21T13:40:54.356Z,26.40
2019-05-21T13:43:26.250Z,26.75
2019-05-21T13:45:58.036Z,26.93
2019-05-21T13:48:29.823Z,26.55
2019-05-21T13:51:01.769Z,26.34
2019-05-21T13:53:33.468Z,26.77
2019-05-21T13:56:05.307Z,26.06
2019-05-21T13:58:37.031Z,26.31
2019-05-21T14:01:16.127Z,26.66
2019-05-21T14:03:49.120Z,26.92
2019-05-21T14:06:20.933Z,27.05
2019-05-21T14:08:52.655Z,27.34
2019-05-21T14:11:24.481Z,27.70
2019-05-21T14:13:56.599Z,27.08
2019-05-21T14:16:28.344Z,27.33
2019-05-21T14:19:01.342Z,27.18
2019-05-21T14:21:33.131Z,27.53
2019-05-21T14:24:04.896Z,27.47
2019-05-21T14:26:36.674Z,27.21
2019-05-21T14:29:08.975Z,26.90
2019-05-21T14:31:40.697Z,27.01
2019-05-21T14:34:12.693Z,27.25
2019-05-21T14:36:44.858Z,26.31
2019-05-21T14:39:18.504Z,26.00
2019-05-21T14:41:50.183Z,26.07
2019-05-21T14:44:22.144Z,25.88
2019-05-21T14:46:54.792Z,26.16
2019-05-21T14:49:30.972Z,25.95
2019-05-21T14:52:02.803Z,25.88
2019-05-21T14:54:34.597Z,26.51
2019-05-21T14:57:12.618Z,25.97
2019-05-21T14:59:44.330Z,25.70
2019-05-21T15:02:17.120Z,26.04
2019-05-21T15:04:49.098Z,25.98
2019-05-21T15:07:21.933Z,25.73
2019-05-21T15:09:53.849Z,25.38
2019-05-21T15:12:25.656Z,25.68
2019-05-21T15:14:57.337Z,25.39
2019-05-21T15:17:31.931Z,25.69
2019-05-21T15:20:07.174Z,25.36
2019-05-21T15:22:38.925Z,25.27
2019-05-21T15:25:10.634Z,25.08
2019-05-21T15:27:42.355Z,25.33
2019-05-21T15:30:17.321Z,25.05
2019-05-21T15:32:49.043Z,25.18
2019-05-21T15:35:20.795Z,24.81
2019-05-21T15:37:52.562Z,24.74
2019-05-21T15:40:24.354Z,24.81
2019-05-21T15:42:56.129Z,25.11
2019-05-21T15:45:27.961Z,24.83
2019-05-21T15:47:59.805Z,24.82
2019-05-21T15:50:33.878Z,24.55
2019-05-21T15:53:05.739Z,24.62
2019-05-21T15:55:37.612Z,24.82
2019-05-21T15:58:10.295Z,24.33
2019-05-21T16:00:42.349Z,24.54
2019-05-21T16:03:15.737Z,24.31
2019-05-21T16:05:49.151Z,24.19
2019-05-21T16:08:20.895Z,24.36
2019-05-21T16:10:52.705Z,24.20
2019-05-21T16:13:24.743Z,24.27
2019-05-21T16:15:56.920Z,24.33
2019-05-21T16:18:52.415Z,24.19
2019-05-21T16:21:25.911Z,24.10
2019-05-21T16:23:57.875Z,23.77
2019-05-21T16:26:29.575Z,23.38
2019-05-21T16:29:02.826Z,23.38
2019-05-21T16:31:34.639Z,23.18
2019-05-21T16:34:06.565Z,23.13
2019-05-21T16:36:38.322Z,23.31
2019-05-21T16:39:10.023Z,23.48
2019-05-21T16:41:45.334Z,23.22
2019-05-21T16:44:18.421Z,23.29
2019-05-21T16:46:50.572Z,23.08
2019-05-21T16:49:22.563Z,23.14
2019-05-21T16:51:54.354Z,23.21
2019-05-21T16:54:26.173Z,23.16
2019-05-21T16:57:00.511Z,22.94
2019-05-21T16:59:32.430Z,23.00
2019-05-21T17:02:14.509Z,22.75
2019-05-21T17:05:07.194Z,22.85
2019-05-21T17:07:51.828Z,22.61
2019-05-21T17:10:31.513Z,22.57
2019-05-21T17:13:05.968Z,22.50
2019-05-21T17:15:39.461Z,22.70
2019-05-21T17:18:21.334Z,22.91
2019-05-21T17:20:53.284Z,22.93
2019-05-21T17:23:25.025Z,22.68
2019-05-21T17:25:58.363Z,22.75
2019-05-21T17:28:30.077Z,22.69
2019-05-21T17:31:01.799Z,22.38
2019-05-21T17:33:33.506Z,22.59
2019-05-21T17:36:07.472Z,22.54
2019-05-21T17:39:00.309Z,22.55
2019-05-21T17:41:51.066Z,22.64
2019-05-21T17:44:25.451Z,22.56
2019-05-21T17:46:58.425Z,22.63
2019-05-21T17:49:30.100Z,22.38
2019-05-21T17:52:03.254Z,22.09
2019-05-21T17:54:34.967Z,22.08
2019-05-21T17:57:06.827Z,22.27
2019-05-21T17:59:38.551Z,22.32
2019-05-21T18:02:13.869Z,22.02
2019-05-21T18:04:46.603Z,22.20
2019-05-21T18:07:18.999Z,22.30
2019-05-21T18:09:50.905Z,22.33
2019-05-21T18:12:32.013Z,22.32
2019-05-21T18:14:59.284Z,22.32
2019-05-21T18:17:31.099Z,22.39
2019-05-21T18:20:03.484Z,22.31
2019-05-21T18:22:36.918Z,22.18
2019-05-21T18:25:09.804Z,22.10
2019-05-21T18:27:41.900Z,21.98
2019-05-21T18:30:13.690Z,21.64
2019-05-21T18:32:45.614Z,21.73
2019-05-21T18:35:17.388Z,21.68
2019-05-21T18:37:49.272Z,21.62
2019-05-21T18:40:21.013Z,21.47
2019-05-21T18:42:52.749Z,21.17
2019-05-21T18:45:24.464Z,21.15
2019-05-21T18:47:56.264Z,21.17
2019-05-21T18:50:36.343Z,21.22
2019-05-21T18:53:01.926Z,21.12
2019-05-21T18:55:33.662Z,21.13
2019-05-21T18:58:05.464Z,21.05
2019-05-21T19:00:37.190Z,21.07
2019-05-21T19:03:12.958Z,21.05
2019-05-21T19:05:44.941Z,20.97
2019-05-21T19:08:21.366Z,20.89
2019-05-21T19:10:53.245Z,20.81
2019-05-21T19:13:28.906Z,20.76
2019-05-21T19:16:06.146Z,20.74
2019-05-21T19:18:38.307Z,20.55
2019-05-21T19:21:11.327Z,20.52
2019-05-21T19:23:43.069Z,20.44
2019-05-21T19:26:15.179Z,20.41
2019-05-21T19:28:48.419Z,20.33
2019-05-21T19:31:22.281Z,20.21
2019-05-21T19:33:54.145Z,20.11
2019-05-21T19:36:28.126Z,20.16
2019-05-21T19:39:01.494Z,20.11
2019-05-21T19:41:34.987Z,20.02
2019-05-21T19:44:06.710Z,19.94
2019-05-21T19:46:38.767Z,19.90
2019-05-21T19:49:11.666Z,19.84
2019-05-21T19:51:46.205Z,19.79
2019-05-21T19:54:19.501Z,19.86
2019-05-21T19:56:54.419Z,19.68
2019-05-21T19:59:28.583Z,19.50
2019-05-21T20:02:00.426Z,19.34
2019-05-21T20:04:34.209Z,19.33
2019-05-21T20:07:09.692Z,19.11
2019-05-21T20:09:42.594Z,19.00
2019-05-21T20:12:17.757Z,19.01
2019-05-21T20:14:49.491Z,18.87
2019-05-21T20:17:24.495Z,18.81
2019-05-21T20:19:58.594Z,18.86
2019-05-21T20:22:30.681Z,18.69
2019-05-21T20:25:05.428Z,18.57
2019-05-21T20:27:37.690Z,18.49
2019-05-21T20:30:13.318Z,18.44
2019-05-21T20:32:46.562Z,18.43
2019-05-21T20:35:18.701Z,18.43
2019-05-21T20:37:51.678Z,18.49
2019-05-21T20:40:26.804Z,18.35
2019-05-21T20:42:58.854Z,18.18
2019-05-21T20:45:31.530Z,18.11
2019-05-21T20:48:03.828Z,18.00
2019-05-21T20:50:37.783Z,17.93
2019-05-21T20:53:09.708Z,17.91
2019-05-21T20:55:41.460Z,17.97
2019-05-21T20:58:13.164Z,17.98
2019-05-21T21:00:49.643Z,17.92
2019-05-21T21:03:22.384Z,17.83
2019-05-21T21:05:55.769Z,17.68
2019-05-21T21:08:30.889Z,17.73
2019-05-21T21:11:03.779Z,17.81
2019-05-21T21:13:36.897Z,17.73
2019-05-21T21:16:10.992Z,17.71
2019-05-21T21:18:43.076Z,17.67
2019-05-21T21:21:15.061Z,17.64
2019-05-21T21:23:46.884Z,17.48
2019-05-21T21:26:20.688Z,17.46
2019-05-21T21:28:52.512Z,17.54
2019-05-21T21:31:24.411Z,17.36
2019-05-21T21:33:59.163Z,17.30
2019-05-21T21:36:30.921Z,17.28
2019-05-21T21:39:05.510Z,17.22
2019-05-21T21:41:39.116Z,17.05
2019-05-21T21:44:12.592Z,17.10
2019-05-21T21:46:45.561Z,17.09
2019-05-21T21:49:20.509Z,16.98
2019-05-21T21:51:52.294Z,16.93
2019-05-21T21:54:24.005Z,16.97
2019-05-21T21:56:56.026Z,16.88
2019-05-21T21:59:27.802Z,16.77
2019-05-21T22:02:05.725Z,16.64
2019-05-21T22:04:37.446Z,16.74
2019-05-21T22:07:11.670Z,16.72
2019-05-21T22:09:46.186Z,16.64
2019-05-21T22:12:18.868Z,16.61
2019-05-21T22:14:57.749Z,16.62
2019-05-21T22:17:29.929Z,16.66
2019-05-21T22:20:01.760Z,16.57
2019-05-21T22:22:34.503Z,16.41
2019-05-21T22:25:08.319Z,16.27
2019-05-21T22:27:40.119Z,16.24
2019-05-21T22:30:12.517Z,16.17
2019-05-21T22:32:44.582Z,16.13
2019-05-21T22:35:16.454Z,15.99
2019-05-21T22:37:48.181Z,15.94
2019-05-21T22:40:20.046Z,15.81
2019-05-21T22:42:53.437Z,15.74
2019-05-21T22:45:25.152Z,15.88
2019-05-21T22:47:58.630Z,15.81
2019-05-21T22:50:30.438Z,15.66
2019-05-21T22:53:02.759Z,15.50
2019-05-21T22:55:36.660Z,15.54
2019-05-21T22:58:09.170Z,15.60
2019-05-21T23:01:03.710Z,15.57
2019-05-21T23:03:43.072Z,15.48
2019-05-21T23:06:16.554Z,15.36
2019-05-21T23:08:49.453Z,15.45
2019-05-21T23:11:23.123Z,15.44
2019-05-21T23:13:56.246Z,15.45
2019-05-21T23:19:39.669Z,15.31
2019-05-21T23:22:16.396Z,15.23
2019-05-21T23:24:48.913Z,15.04
2019-05-21T23:27:22.110Z,15.04
2019-05-21T23:29:54.873Z,14.98
2019-05-21T23:32:26.591Z,15.01
2019-05-21T23:35:00.060Z,14.91
2019-05-21T23:37:33.467Z,14.92
2019-05-21T23:40:06.838Z,14.83
2019-05-21T23:42:38.778Z,14.81
2019-05-21T23:45:12.370Z,14.79
2019-05-21T23:47:44.112Z,14.86
2019-05-21T23:50:19.104Z,14.83
2019-05-21T23:53:24.044Z,14.70
2019-05-21T23:56:09.660Z,14.69
2019-05-21T23:58:42.235Z,14.55
